Time;durP1;ratioP1;P1;durP2;ratioP2;P2;SDS_P1;SDS_P2;PMS_P1;PMS_P2;Temp;Humidity;BMP_temperature;BMP_pressure;BME280_temperature;BME280_humidity;BME280_pressure;Samples;Min_cycle;Max_cycle;Signal;HPM_P1;HPM_P2
2023/05/15 00:00:03;;;;;;;69.40;65.63;;;;;;;23.20;42.93;101464.94;5056628;28;20035;-74
2023/05/15 00:02:28;;;;;;;69.40;65.70;;;;;;;23.16;42.82;101462.00;5074200;28;20039;-74
2023/05/15 00:04:54;;;;;;;69.55;65.65;;;;;;;23.15;43.23;101456.78;5040118;28;20025;-75
2023/05/15 00:07:19;;;;;;;70.18;66.30;;;;;;;23.10;43.07;101455.78;5055979;28;20515;-75
2023/05/15 00:09:45;;;;;;;66.70;63.08;;;;;;;23.08;43.09;101448.94;5073663;28;20404;-73
2023/05/15 00:12:10;;;;;;;66.45;62.65;;;;;;;23.05;42.88;101436.59;5074104;28;20484;-73
2023/05/15 00:14:36;;;;;;;67.20;63.60;;;;;;;23.02;43.27;101445.50;5056603;28;20467;-75
2023/05/15 00:17:01;;;;;;;68.18;64.45;;;;;;;23.00;42.80;101433.16;5073503;28;20024;-75
2023/05/15 00:19:27;;;;;;;68.28;64.57;;;;;;;22.98;43.12;101432.63;5073635;28;20491;-75
2023/05/15 00:21:52;;;;;;;67.15;63.28;;;;;;;22.94;43.15;101437.94;5073722;28;20033;-74
2023/05/15 00:24:18;;;;;;;67.15;63.45;;;;;;;22.91;42.80;101433.06;5073759;28;20036;-74
2023/05/15 00:26:43;;;;;;;63.95;60.58;;;;;;;22.88;42.88;101433.66;5056183;28;20064;-73
2023/05/15 00:29:09;;;;;;;66.63;62.67;;;;;;;22.83;42.84;101428.25;5055590;28;20033;-74
2023/05/15 00:31:34;;;;;;;70.05;66.05;;;;;;;22.82;43.02;101421.13;5073606;28;20460;-74
2023/05/15 00:34:00;;;;;;;68.72;64.93;;;;;;;22.78;42.82;101428.34;5056018;28;20456;-75
2023/05/15 00:36:25;;;;;;;64.90;61.28;;;;;;;22.75;43.22;101431.75;5073529;28;20032;-74
2023/05/15 00:38:51;;;;;;;68.18;64.22;;;;;;;22.72;43.29;101418.59;5073575;28;20056;-74
2023/05/15 00:41:17;;;;;;;67.85;64.18;;;;;;;22.69;42.99;101422.78;5073901;28;20072;-75
2023/05/15 00:43:43;;;;;;;65.13;61.20;;;;;;;22.66;43.36;101421.44;5073338;28;20031;-74
2023/05/15 00:46:11;;;;;;;67.75;64.05;;;;;;;22.62;43.09;101420.44;5073406;28;20039;-74
2023/05/15 00:48:38;;;;;;;66.05;62.10;;;;;;;22.60;42.92;101433.72;5073569;28;20032;-74
2023/05/15 00:51:04;;;;;;;65.18;61.35;;;;;;;22.57;42.78;101428.00;5055397;28;20402;-73
2023/05/15 00:53:29;;;;;;;64.43;60.70;;;;;;;22.53;43.06;101422.28;5073491;28;20094;-74
2023/05/15 00:55:56;;;;;;;65.07;61.25;;;;;;;22.51;43.46;101429.22;5073422;28;20032;-75
2023/05/15 00:58:22;;;;;;;65.22;61.70;;;;;;;22.45;43.44;101421.06;5073301;28;20025;-75
2023/05/15 01:00:50;;;;;;;63.53;59.92;;;;;;;22.42;43.37;101424.41;5073109;28;20055;-74
2023/05/15 01:03:16;;;;;;;65.60;61.78;;;;;;;22.41;43.40;101414.53;5073241;28;20024;-74
2023/05/15 01:05:42;;;;;;;65.22;61.35;;;;;;;22.38;43.42;101415.16;5073301;28;20047;-75
2023/05/15 01:08:36;;;;;;;63.47;59.92;;;;;;;22.37;42.91;101420.97;5073212;28;20029;-74
2023/05/15 01:11:04;;;;;;;61.63;58.00;;;;;;;22.30;43.00;101415.88;5073781;28;20380;-75
2023/05/15 01:13:29;;;;;;;62.97;58.87;;;;;;;22.29;43.41;101408.72;5072938;28;20563;-74
2023/05/15 01:15:55;;;;;;;64.10;60.20;;;;;;;22.26;43.11;101403.84;5055337;28;20358;-76
2023/05/15 01:18:21;;;;;;;64.60;61.00;;;;;;;22.24;43.11;101406.06;5073281;28;20034;-74
2023/05/15 01:21:26;;;;;;;65.43;61.53;;;;;;;22.22;43.34;101402.81;5072941;28;20029;-75
2023/05/15 01:24:17;;;;;;;62.63;58.83;;;;;;;22.17;43.42;101405.63;5071829;28;20119;-74
2023/05/15 01:27:14;;;;;;;63.50;59.58;;;;;;;22.11;43.51;101404.91;5073444;28;20060;-75
2023/05/15 01:30:02;;;;;;;61.20;57.33;;;;;;;22.07;43.04;101403.88;5054921;28;20029;-74
2023/05/15 01:33:05;;;;;;;60.67;57.05;;;;;;;22.03;43.56;101400.94;5073377;28;20031;-74
2023/05/15 01:35:45;;;;;;;61.53;57.65;;;;;;;21.97;43.06;101396.66;5073018;28;20468;-74
2023/05/15 01:38:26;;;;;;;62.75;59.00;;;;;;;21.94;43.22;101386.25;5073184;28;20028;-75
2023/05/15 01:41:09;;;;;;;63.97;60.08;;;;;;;21.93;43.52;101394.81;5073357;28;20028;-74
2023/05/15 01:43:38;;;;;;;61.90;58.08;;;;;;;21.90;43.56;101395.41;5073098;28;20044;-75
2023/05/15 01:46:06;;;;;;;62.63;58.45;;;;;;;21.89;43.14;101393.78;5073235;28;20035;-75
2023/05/15 01:48:32;;;;;;;62.72;58.92;;;;;;;21.86;43.71;101386.16;5055709;28;20085;-75
2023/05/15 01:51:02;;;;;;;62.97;58.83;;;;;;;21.83;43.27;101374.63;5073199;28;20028;-74
2023/05/15 01:53:31;;;;;;;64.53;60.30;;;;;;;21.80;43.08;101378.00;5073270;28;20029;-75
2023/05/15 01:55:57;;;;;;;;;;;;;;;21.83;43.29;101385.63;5077329;28;20032;-75
2023/05/15 01:58:25;;;;;;;61.10;57.10;;;;;;;21.74;43.29;101384.69;5058607;28;19916;-75
2023/05/15 02:00:51;;;;;;;58.92;54.92;;;;;;;21.71;43.13;101389.97;5076429;28;20032;-75
2023/05/15 02:03:18;;;;;;;63.22;58.58;;;;;;;21.68;43.28;101387.84;5076385;28;20074;-74
2023/05/15 02:05:46;;;;;;;62.33;58.42;;;;;;;21.66;43.48;101390.06;5077045;28;20095;-74
2023/05/15 02:08:12;;;;;;;61.67;57.80;;;;;;;21.64;43.72;101397.81;5059207;28;20024;-75
2023/05/15 02:10:38;;;;;;;62.08;58.38;;;;;;;21.61;43.52;101393.72;5058513;28;20447;-75
2023/05/15 02:13:07;;;;;;;61.58;57.78;;;;;;;21.58;43.42;101392.41;5076193;28;20024;-75
2023/05/15 02:15:33;;;;;;;64.65;60.58;;;;;;;21.55;43.48;101395.75;5075981;28;20076;-75
2023/05/15 02:17:58;;;;;;;63.00;58.88;;;;;;;21.53;43.23;101400.72;5058824;28;20563;-76
2023/05/15 02:20:24;;;;;;;61.45;57.67;;;;;;;21.52;43.61;101396.34;5076163;28;20029;-76
2023/05/15 02:22:49;;;;;;;62.60;58.58;;;;;;;21.49;43.19;101396.94;5075857;28;20491;-76
2023/05/15 02:25:15;;;;;;;61.88;57.88;;;;;;;21.47;43.27;101404.69;5057900;28;20082;-75
2023/05/15 02:27:50;;;;;;;60.22;56.25;;;;;;;21.43;43.75;101398.16;5058210;28;20474;-75
2023/05/15 02:30:28;;;;;;;60.65;56.63;;;;;;;21.42;43.35;101401.19;5076199;28;20025;-75
2023/05/15 02:33:12;;;;;;;59.70;55.92;;;;;;;21.37;43.78;101396.59;5075981;28;20032;-75
2023/05/15 02:35:58;;;;;;;59.80;55.72;;;;;;;21.35;43.46;101398.81;5058348;28;20123;-76
2023/05/15 02:38:50;;;;;;;63.47;59.47;;;;;;;21.32;43.74;101393.91;5076031;28;20109;-76
2023/05/15 02:41:17;;;;;;;62.70;58.50;;;;;;;21.27;43.41;101400.31;5076300;28;20028;-74
2023/05/15 02:43:43;;;;;;;60.15;56.28;;;;;;;21.25;43.53;101398.97;5075765;28;20033;-75
2023/05/15 02:46:09;;;;;;;59.38;55.80;;;;;;;21.22;43.46;101397.63;5075712;28;20043;-75
2023/05/15 02:48:39;;;;;;;61.95;57.40;;;;;;;21.21;43.50;101397.94;5040973;28;20033;-75
2023/05/15 02:51:05;;;;;;;59.40;55.45;;;;;;;21.17;43.47;101397.72;5075595;28;20032;-76
2023/05/15 02:53:31;;;;;;;62.72;58.47;;;;;;;21.14;43.50;101399.13;5076054;28;20069;-75
2023/05/15 02:55:57;;;;;;;61.72;57.72;;;;;;;21.13;43.53;101388.44;5076053;28;20036;-76
2023/05/15 02:58:22;;;;;;;59.97;56.22;;;;;;;21.11;43.47;101390.66;5075372;28;20039;-76
2023/05/15 03:00:48;;;;;;;59.58;55.70;;;;;;;21.09;43.50;101388.22;5075484;28;20468;-78
2023/05/15 03:03:13;;;;;;;59.30;55.30;;;;;;;21.07;43.91;101386.88;5075253;28;20392;-75
2023/05/15 03:05:39;;;;;;;60.05;56.15;;;;;;;21.04;43.49;101388.28;5074427;28;20032;-75
2023/05/15 03:08:04;;;;;;;61.72;57.70;;;;;;;21.02;43.77;101378.72;5075310;28;20499;-74
2023/05/15 03:10:30;;;;;;;60.78;56.92;;;;;;;21.00;43.78;101381.75;5053839;28;20059;-75
2023/05/15 03:12:58;;;;;;;61.25;57.50;;;;;;;20.99;43.52;101382.03;5055162;28;20125;-75
2023/05/15 03:15:24;;;;;;;58.15;54.30;;;;;;;20.95;43.35;101381.84;5055400;28;20032;-75
2023/05/15 03:17:49;;;;;;;59.78;55.63;;;;;;;20.91;43.45;101383.53;5054960;28;20427;-75
2023/05/15 03:20:15;;;;;;;56.72;52.80;;;;;;;20.89;43.47;101378.34;5055053;28;20064;-75
2023/05/15 03:22:41;;;;;;;55.38;51.75;;;;;;;20.86;43.87;101383.59;5055168;28;20060;-76
2023/05/15 03:25:09;;;;;;;61.10;56.92;;;;;;;20.84;43.65;101369.34;5054502;28;20112;-75
2023/05/15 03:27:35;;;;;;;;;;;;;;;20.86;43.74;101370.69;5055520;28;20469;-75
2023/05/15 03:30:01;;;;;;;55.92;52.28;;;;;;;20.78;43.89;101365.06;5053617;28;19913;-74
2023/05/15 03:32:26;;;;;;;62.65;58.20;;;;;;;20.74;43.97;101362.09;5055232;28;20028;-76
2023/05/15 03:34:51;;;;;;;58.40;54.33;;;;;;;20.71;43.68;101359.91;5054503;28;20040;-76
2023/05/15 03:37:17;;;;;;;60.67;56.08;;;;;;;20.71;43.72;101363.50;5053606;28;20104;-75
2023/05/15 03:39:42;;;;;;;59.50;55.13;;;;;;;20.67;43.51;101362.44;5054448;28;20041;-75
2023/05/15 03:42:08;;;;;;;59.28;54.80;;;;;;;20.66;44.00;101368.22;5053340;28;20425;-75
2023/05/15 03:44:33;;;;;;;59.05;54.47;;;;;;;20.63;43.68;101366.06;5054477;28;20060;-75
2023/05/15 03:46:59;;;;;;;58.42;54.58;;;;;;;20.60;44.08;101359.25;5054589;28;20087;-75
2023/05/15 03:49:24;;;;;;;62.17;57.53;;;;;;;20.60;43.87;101361.19;5054475;28;20108;-75
2023/05/15 03:51:50;;;;;;;58.47;54.20;;;;;;;20.56;43.69;101358.19;5054114;28;20037;-75
2023/05/15 03:54:15;;;;;;;58.60;54.42;;;;;;;20.54;43.58;101360.41;5053207;28;20037;-75
2023/05/15 03:56:41;;;;;;;61.47;56.85;;;;;;;20.52;43.66;101360.69;5053147;28;20025;-75
2023/05/15 03:59:06;;;;;;;59.40;55.05;;;;;;;20.49;43.73;101364.03;5054205;28;20025;-75
2023/05/15 04:01:31;;;;;;;57.97;53.92;;;;;;;20.47;43.74;101369.00;5053046;28;20042;-77
2023/05/15 04:03:57;;;;;;;59.50;55.15;;;;;;;20.45;43.69;101373.97;5053200;28;20166;-75
2023/05/15 04:06:22;;;;;;;60.83;56.42;;;;;;;20.43;44.09;101369.88;5054392;28;20503;-76
2023/05/15 04:08:49;;;;;;;57.65;53.58;;;;;;;20.41;43.72;101380.31;5052698;28;20448;-76
2023/05/15 04:11:15;;;;;;;60.95;56.75;;;;;;;20.38;43.64;101369.94;5052686;28;20057;-75
2023/05/15 04:13:40;;;;;;;61.13;56.60;;;;;;;20.35;43.52;101371.34;5054056;28;20082;-75
2023/05/15 04:16:07;;;;;;;59.88;55.33;;;;;;;20.34;43.74;101374.41;5054256;28;20037;-75
2023/05/15 04:18:32;;;;;;;59.35;54.92;;;;;;;20.29;43.73;101373.34;5054028;28;20041;-75
2023/05/15 04:20:58;;;;;;;59.92;55.28;;;;;;;20.28;43.99;101382.66;5053973;28;20128;-75
2023/05/15 04:23:23;;;;;;;56.33;52.28;;;;;;;20.26;44.16;101378.56;5053241;28;20056;-74
2023/05/15 04:25:49;;;;;;;57.75;53.65;;;;;;;20.24;43.79;101380.81;5053739;28;20068;-75
2023/05/15 04:28:14;;;;;;;57.80;53.30;;;;;;;20.21;43.94;101373.16;5052659;28;20033;-74
2023/05/15 04:30:40;;;;;;;61.50;56.92;;;;;;;20.19;44.27;101369.91;5053705;28;20082;-76
2023/05/15 04:33:06;;;;;;;58.55;53.85;;;;;;;20.16;44.25;101371.31;5053686;28;20036;-75
2023/05/15 04:35:31;;;;;;;59.03;54.58;;;;;;;20.14;43.73;101367.22;5053669;28;20031;-76
2023/05/15 04:37:57;;;;;;;57.90;53.25;;;;;;;20.13;44.25;101376.53;5052162;28;20088;-75
2023/05/15 04:40:22;;;;;;;56.45;52.38;;;;;;;20.11;43.92;101382.34;5019174;28;20465;-76
2023/05/15 04:42:48;;;;;;;56.53;51.83;;;;;;;20.09;44.00;101387.28;5053726;28;20590;-76
2023/05/15 04:45:13;;;;;;;62.55;57.05;;;;;;;20.07;44.20;101393.06;5052399;28;20483;-77
2023/05/15 04:47:39;;;;;;;59.35;54.00;;;;;;;20.05;44.25;101392.53;5052315;28;20032;-75
2023/05/15 04:50:05;;;;;;;59.78;54.97;;;;;;;20.04;43.98;101398.31;5051964;28;20056;-77
2023/05/15 04:52:31;;;;;;;57.85;52.83;;;;;;;20.02;44.13;101400.53;5053419;28;20029;-76
2023/05/15 04:54:56;;;;;;;57.47;53.03;;;;;;;20.01;44.11;101407.13;5052234;28;20385;-74
2023/05/15 04:57:22;;;;;;;60.45;55.47;;;;;;;19.99;44.22;101401.94;5053683;28;20365;-74
2023/05/15 04:59:48;;;;;;;58.33;53.92;;;;;;;19.97;44.09;101408.81;5051902;28;20462;-76
2023/05/15 05:02:13;;;;;;;59.08;54.55;;;;;;;19.95;43.90;101413.75;5052049;28;20056;-75
2023/05/15 05:04:41;;;;;;;56.75;52.30;;;;;;;19.94;43.84;101410.19;5035622;28;20037;-76
2023/05/15 05:07:07;;;;;;;57.88;53.20;;;;;;;19.92;44.16;101409.66;5053327;28;20388;-75
2023/05/15 05:09:33;;;;;;;58.75;54.13;;;;;;;19.90;44.33;101417.34;5038346;28;20143;-76
2023/05/15 05:11:59;;;;;;;59.92;55.15;;;;;;;19.88;43.99;101411.34;5073583;28;20028;-74
2023/05/15 05:14:25;;;;;;;56.90;52.30;;;;;;;19.86;44.32;101413.56;5073195;28;20123;-74
2023/05/15 05:16:50;;;;;;;60.03;55.67;;;;;;;19.84;44.37;101415.78;5038630;28;20032;-75
2023/05/15 05:19:16;;;;;;;57.90;53.13;;;;;;;19.82;44.31;101424.28;5055230;28;20036;-74
2023/05/15 05:21:41;;;;;;;56.22;51.90;;;;;;;19.79;44.22;101427.63;5054770;28;20436;-74
2023/05/15 05:24:06;;;;;;;59.58;54.70;;;;;;;19.78;44.25;101430.63;5055212;28;20033;-75
2023/05/15 05:26:32;;;;;;;54.35;50.00;;;;;;;19.77;44.19;101426.25;5073147;28;20468;-76
2023/05/15 05:28:57;;;;;;;56.50;52.05;;;;;;;19.75;44.55;101425.72;5056596;28;20036;-75
2023/05/15 05:31:23;;;;;;;56.30;51.90;;;;;;;19.72;44.54;101429.06;5042584;28;20064;-76
2023/05/15 05:33:48;;;;;;;56.40;52.05;;;;;;;19.71;44.18;101428.25;5076971;28;20025;-76
2023/05/15 05:36:14;;;;;;;46.53;43.88;;;;;;;19.67;44.25;101425.25;5059166;28;20028;-75
2023/05/15 05:38:40;;;;;;;56.70;52.35;;;;;;;19.67;44.49;101425.25;5077078;28;20040;-74
2023/05/15 05:41:05;;;;;;;55.88;51.63;;;;;;;19.63;44.67;101429.66;5076624;28;20044;-76
2023/05/15 05:43:31;;;;;;;56.55;52.28;;;;;;;19.63;44.42;101426.06;5077021;28;20036;-76
2023/05/15 05:45:56;;;;;;;52.47;48.80;;;;;;;19.61;44.44;101422.81;5077487;28;20511;-75
2023/05/15 05:48:22;;;;;;;54.03;49.92;;;;;;;19.60;44.56;101421.97;5076838;28;20484;-76
2023/05/15 05:50:47;;;;;;;56.08;51.80;;;;;;;19.60;44.34;101421.16;5076385;28;20128;-76
2023/05/15 05:53:12;;;;;;;57.70;52.92;;;;;;;19.59;44.68;101420.34;5076743;28;20032;-76
2023/05/15 05:55:38;;;;;;;54.83;50.45;;;;;;;19.56;44.69;101409.97;5076165;28;20041;-75
2023/05/15 05:58:03;;;;;;;54.50;50.40;;;;;;;19.55;44.43;101415.72;5077018;28;20036;-76
2023/05/15 06:00:29;;;;;;;54.15;50.22;;;;;;;19.54;44.56;101420.38;5077120;28;20439;-75
2023/05/15 06:02:57;;;;;;;56.80;52.00;;;;;;;19.54;44.45;101414.09;5076189;28;20045;-75
2023/05/15 06:05:26;;;;;;;55.70;50.75;;;;;;;19.54;44.80;101414.09;5076670;28;20421;-75
2023/05/15 06:07:52;;;;;;;55.72;51.60;;;;;;;19.51;44.46;101411.94;5076316;28;20025;-75
2023/05/15 06:10:18;;;;;;;52.25;48.05;;;;;;;19.49;44.67;101412.22;5076100;28;20057;-74
2023/05/15 06:12:44;;;;;;;56.08;51.72;;;;;;;19.47;44.81;101414.41;5076014;28;20045;-76
2023/05/15 06:15:10;;;;;;;53.92;49.92;;;;;;;19.47;44.87;101417.16;5058360;28;20434;-75
2023/05/15 06:17:36;;;;;;;54.75;50.60;;;;;;;19.44;44.62;101413.06;5058890;28;20028;-76
2023/05/15 06:20:05;;;;;;;54.95;50.55;;;;;;;19.46;44.78;101410.06;5076088;28;20067;-76
2023/05/15 06:22:31;;;;;;;57.20;52.20;;;;;;;19.45;44.68;101416.63;5076196;28;20571;-75
2023/05/15 06:24:57;;;;;;;55.88;51.60;;;;;;;19.44;44.57;101412.25;5058958;28;20064;-75
2023/05/15 06:27:25;;;;;;;55.63;51.22;;;;;;;19.44;44.60;101412.25;5076095;28;20059;-75
2023/05/15 06:29:51;;;;;;;57.17;52.72;;;;;;;19.44;44.66;101412.25;5075888;28;20032;-75
2023/05/15 06:32:16;;;;;;;53.35;49.35;;;;;;;19.42;44.46;101415.28;5058018;28;20033;-75
2023/05/15 06:34:41;;;;;;;56.35;52.08;;;;;;;19.41;44.54;101413.66;5076340;28;20032;-76
2023/05/15 06:37:07;;;;;;;53.80;49.58;;;;;;;19.41;44.51;101421.06;5057669;28;20029;-74
2023/05/15 06:39:32;;;;;;;55.38;51.38;;;;;;;19.39;44.92;101415.84;5058082;28;20067;-76
2023/05/15 06:42:00;;;;;;;55.67;51.15;;;;;;;19.39;44.60;101417.78;5056995;28;20060;-75
2023/05/15 06:44:29;;;;;;;53.17;48.97;;;;;;;19.38;44.87;101418.88;5076230;28;20036;-76
2023/05/15 06:46:55;;;;;;;54.75;50.63;;;;;;;19.38;44.75;101414.22;5056954;28;20028;-75
2023/05/15 06:49:20;;;;;;;53.97;49.97;;;;;;;19.35;44.51;101416.69;5075118;28;20077;-75
2023/05/15 06:51:46;;;;;;;54.17;50.17;;;;;;;19.33;44.61;101407.97;5057940;28;20064;-76
2023/05/15 06:54:11;;;;;;;52.08;48.28;;;;;;;19.34;44.95;101412.34;5075033;28;20032;-75
2023/05/15 06:56:37;;;;;;;48.63;45.67;;;;;;;19.32;44.72;101411.78;5040835;28;20128;-76
2023/05/15 06:59:02;;;;;;;52.05;48.38;;;;;;;19.31;44.85;101413.72;5057212;28;20052;-75
2023/05/15 07:01:30;;;;;;;52.20;48.08;;;;;;;19.32;44.89;101409.06;5057335;28;20112;-75
2023/05/15 07:03:55;;;;;;;54.95;50.83;;;;;;;19.32;44.90;101414.53;5057747;28;20116;-76
2023/05/15 07:06:20;;;;;;;50.53;47.00;;;;;;;19.31;45.11;101402.75;5075091;28;20454;-75
2023/05/15 07:08:46;;;;;;;54.70;50.13;;;;;;;19.33;44.56;101405.22;5056917;28;20048;-76
2023/05/15 07:11:11;;;;;;;51.38;47.08;;;;;;;19.31;44.90;101405.50;5057021;28;20123;-75
2023/05/15 07:13:37;;;;;;;50.50;46.42;;;;;;;19.32;44.80;101401.66;5075262;28;20037;-76
2023/05/15 07:16:02;;;;;;;49.22;45.33;;;;;;;19.32;44.77;101393.44;5057367;28;20514;-76
2023/05/15 07:18:29;;;;;;;50.35;46.40;;;;;;;19.33;44.87;101397.81;5057094;28;20025;-75
2023/05/15 07:20:54;;;;;;;52.40;47.80;;;;;;;19.33;44.67;101400.56;5074673;28;20384;-75
2023/05/15 07:23:19;;;;;;;51.75;47.85;;;;;;;19.33;44.90;101399.75;5074673;28;20524;-74
2023/05/15 07:25:45;;;;;;;51.00;47.10;;;;;;;19.33;44.92;101391.53;5056702;28;20095;-75
2023/05/15 07:28:10;;;;;;;50.95;47.15;;;;;;;19.34;44.69;101393.97;5056729;28;20460;-75
2023/05/15 07:30:36;;;;;;;51.08;47.40;;;;;;;19.34;45.08;101396.72;5075016;28;20108;-76
2023/05/15 07:33:02;;;;;;;52.72;48.85;;;;;;;19.34;44.82;101393.97;5075009;28;20454;-76
2023/05/15 07:35:27;;;;;;;49.95;46.33;;;;;;;19.35;44.94;101392.03;5056885;28;20423;-76
2023/05/15 07:37:52;;;;;;;51.60;47.70;;;;;;;19.35;44.73;101394.78;5056009;28;20491;-76
2023/05/15 07:40:18;;;;;;;53.97;49.40;;;;;;;19.35;44.77;101392.88;5074159;28;20036;-76
2023/05/15 07:42:44;;;;;;;50.38;46.53;;;;;;;19.36;44.96;101388.22;5074359;28;20517;-77
2023/05/15 07:45:10;;;;;;;53.78;49.50;;;;;;;19.38;44.79;101388.75;5074235;28;20131;-76
2023/05/15 07:47:35;;;;;;;52.10;48.08;;;;;;;19.39;45.05;101393.94;5056186;28;20147;-76
2023/05/15 07:50:01;;;;;;;57.60;52.60;;;;;;;19.39;44.79;101402.16;5073782;28;20416;-75
2023/05/15 07:52:26;;;;;;;51.70;47.60;;;;;;;19.40;44.80;101402.97;5073351;28;20029;-76
2023/05/15 07:54:52;;;;;;;56.15;51.75;;;;;;;19.38;44.96;101400.53;5074181;28;20504;-76
2023/05/15 07:57:17;;;;;;;54.45;50.25;;;;;;;19.40;44.72;101395.59;5056202;28;20421;-75
2023/05/15 07:59:43;;;;;;;51.58;47.10;;;;;;;19.41;45.08;101407.34;5056043;28;20461;-75
2023/05/15 08:02:08;;;;;;;53.83;49.55;;;;;;;19.41;44.87;101405.44;5073762;28;20037;-76
2023/05/15 08:04:34;;;;;;;53.22;49.17;;;;;;;19.44;44.91;101404.03;5074004;28;20087;-76
2023/05/15 08:06:59;;;;;;;57.72;52.78;;;;;;;19.45;45.04;101387.31;5055687;28;20439;-75
2023/05/15 08:09:25;;;;;;;53.80;49.40;;;;;;;19.49;45.01;101398.50;5073456;28;20380;-74
2023/05/15 08:11:50;;;;;;;52.80;48.10;;;;;;;19.50;45.16;101394.66;5055646;28;20130;-76
2023/05/15 08:14:15;;;;;;;56.72;52.22;;;;;;;19.52;44.99;101395.19;5073546;28;20025;-76
2023/05/15 08:16:41;;;;;;;55.85;51.17;;;;;;;19.54;45.36;101390.25;5056197;28;20033;-76
2023/05/15 08:19:06;;;;;;;54.67;50.05;;;;;;;19.57;44.94;101386.13;5073820;28;20086;-77
2023/05/15 08:21:32;;;;;;;58.03;52.92;;;;;;;19.60;44.90;101391.00;5074096;28;20032;-76
2023/05/15 08:23:59;;;;;;;53.03;48.83;;;;;;;19.62;45.13;101389.63;5073442;28;20098;-77
2023/05/15 08:26:25;;;;;;;51.15;47.10;;;;;;;19.64;45.41;101387.41;5073445;28;20033;-76
2023/05/15 08:28:51;;;;;;;54.40;49.70;;;;;;;19.65;45.18;101386.34;5055033;28;20035;-76
2023/05/15 08:31:16;;;;;;;56.10;51.90;;;;;;;19.70;45.49;101379.19;5073349;28;20036;-76
2023/05/15 08:33:42;;;;;;;53.33;49.40;;;;;;;19.71;45.45;101384.38;5055991;28;20036;-76
2023/05/15 08:36:07;;;;;;;49.83;46.17;;;;;;;19.73;45.54;101384.91;5073210;28;20107;-76
2023/05/15 08:38:33;;;;;;;52.58;48.63;;;;;;;19.76;45.51;101384.34;5073430;28;20427;-76
2023/05/15 08:41:06;;;;;;;58.33;53.33;;;;;;;19.78;45.12;101389.50;5073292;28;20036;-76
2023/05/15 08:43:35;;;;;;;52.63;48.53;;;;;;;19.79;45.26;101381.00;5072834;28;20112;-77
2023/05/15 08:46:01;;;;;;;54.10;49.88;;;;;;;19.80;45.71;101382.63;5053895;28;20082;-75
2023/05/15 08:48:28;;;;;;;57.58;52.97;;;;;;;19.83;45.63;101384.81;5054348;28;20043;-77
2023/05/15 08:50:56;;;;;;;59.25;54.25;;;;;;;19.84;45.47;101378.22;5072739;28;20036;-76
2023/05/15 08:53:22;;;;;;;53.30;49.17;;;;;;;19.88;45.37;101382.03;5073647;28;20111;-76
2023/05/15 08:55:48;;;;;;;55.08;50.60;;;;;;;19.91;45.88;101388.84;5073816;28;20047;-76
2023/05/15 08:58:15;;;;;;;57.10;52.65;;;;;;;19.95;45.43;101389.88;5072853;28;20117;-77
2023/05/15 09:00:41;;;;;;;57.42;52.50;;;;;;;19.98;45.54;101388.50;5054891;28;20395;-76
2023/05/15 09:03:13;;;;;;;55.63;51.50;;;;;;;20.00;46.18;101391.75;5072547;28;20028;-74
2023/05/15 09:05:38;;;;;;;53.63;50.00;;;;;;;20.01;46.03;101386.00;5073011;28;20094;-74
2023/05/15 09:08:05;;;;;;;55.53;51.38;;;;;;;20.04;45.95;101381.88;5073335;28;20037;-74
2023/05/15 09:10:32;;;;;;;52.00;48.35;;;;;;;20.06;45.82;101390.63;5073029;28;20056;-76
2023/05/15 09:13:00;;;;;;;51.00;47.90;;;;;;;20.07;45.78;101390.31;5054762;28;20067;-76
2023/05/15 09:15:26;;;;;;;54.85;50.80;;;;;;;20.11;46.10;101393.31;5072851;28;20037;-76
2023/05/15 09:17:53;;;;;;;56.65;52.35;;;;;;;20.13;46.05;101393.81;5072700;28;20071;-76
2023/05/15 09:20:32;;;;;;;55.15;51.00;;;;;;;20.17;46.38;101394.88;5072756;28;20044;-76
2023/05/15 09:23:00;;;;;;;54.90;50.90;;;;;;;20.18;45.98;101390.19;5073303;28;20445;-76
2023/05/15 09:25:40;;;;;;;54.70;50.53;;;;;;;20.22;45.66;101400.31;5073251;28;20028;-76
2023/05/15 09:28:25;;;;;;;51.50;47.75;;;;;;;20.22;45.99;101400.31;5072804;28;20117;-75
2023/05/15 09:30:59;;;;;;;53.13;49.13;;;;;;;20.25;45.87;101407.94;5072957;28;20059;-74
2023/05/15 09:33:33;;;;;;;51.92;48.45;;;;;;;20.24;46.40;101409.06;5072730;28;20067;-75
2023/05/15 09:35:59;;;;;;;54.30;50.22;;;;;;;20.27;46.19;101411.22;5072971;28;20425;-76
2023/05/15 09:38:25;;;;;;;50.17;46.80;;;;;;;20.29;45.94;101411.75;5072578;28;20036;-75
2023/05/15 09:41:00;;;;;;;53.13;49.58;;;;;;;20.31;46.38;101406.78;5055299;28;20032;-76
2023/05/15 09:43:28;;;;;;;53.75;49.85;;;;;;;20.35;46.64;101408.94;5072612;28;20032;-75
2023/05/15 09:45:54;;;;;;;54.22;50.40;;;;;;;20.36;46.50;101413.31;5072614;28;20024;-76
2023/05/15 09:48:20;;;;;;;53.70;49.90;;;;;;;20.38;46.49;101409.16;5073045;28;20093;-73
2023/05/15 09:50:46;;;;;;;54.42;50.63;;;;;;;20.41;46.57;101410.50;5055147;28;20020;-82
2023/05/15 09:53:12;;;;;;;53.95;50.25;;;;;;;20.41;46.53;101410.50;5072955;28;20031;-76
2023/05/15 09:55:40;;;;;;;54.85;50.85;;;;;;;20.43;46.49;101411.03;5072899;28;20122;-78
2023/05/15 09:58:12;;;;;;;53.65;50.28;;;;;;;20.44;46.37;101423.66;5072044;28;20044;-77
2023/05/15 10:00:39;;;;;;;53.97;50.20;;;;;;;20.44;46.55;101413.50;5072749;28;20071;-75
2023/05/15 10:03:05;;;;;;;51.67;48.38;;;;;;;20.46;46.35;101416.78;5072448;28;20032;-76
2023/05/15 10:05:31;;;;;;;55.20;51.53;;;;;;;20.48;46.70;101413.72;5054990;28;20575;-77
2023/05/15 10:07:58;;;;;;;55.15;51.17;;;;;;;20.50;46.33;101422.47;5072407;28;20021;-75
2023/05/15 10:10:25;;;;;;;53.65;49.85;;;;;;;20.50;46.69;101414.25;5072342;28;20049;-77
2023/05/15 10:12:52;;;;;;;52.58;49.00;;;;;;;20.53;46.41;101419.94;5054323;28;20025;-77
2023/05/15 10:15:19;;;;;;;52.60;49.13;;;;;;;20.56;46.54;101423.25;5056338;28;20036;-74
2023/05/15 10:17:50;;;;;;;54.78;50.90;;;;;;;20.55;46.79;101421.63;5057587;28;20036;-77
2023/05/15 10:20:18;;;;;;;54.72;51.20;;;;;;;20.57;46.25;101413.94;5075800;28;20043;-77
2023/05/15 10:22:55;;;;;;;53.95;50.40;;;;;;;20.62;46.69;101416.59;5058019;28;20068;-76
2023/05/15 10:25:31;;;;;;;52.90;49.67;;;;;;;20.60;46.75;101422.38;5075798;28;20120;-76
2023/05/15 10:27:57;;;;;;;61.03;56.15;;;;;;;20.63;46.60;101423.72;5075568;28;20028;-77
2023/05/15 10:30:24;;;;;;;55.15;51.50;;;;;;;20.64;46.54;101414.41;5075755;28;20037;-76
2023/05/15 10:32:50;;;;;;;56.10;52.33;;;;;;;20.65;46.33;101418.75;5075920;28;20522;-76
2023/05/15 10:35:17;;;;;;;55.85;51.88;;;;;;;20.65;46.40;101403.09;5075505;28;20036;-71
2023/05/15 10:37:45;;;;;;;53.75;50.03;;;;;;;20.69;46.43;101425.31;5075821;28;20116;-78
2023/05/15 10:40:13;;;;;;;57.72;53.85;;;;;;;20.68;46.76;101415.41;5075128;28;20115;-77
2023/05/15 10:42:42;;;;;;;54.60;51.28;;;;;;;20.69;46.28;101426.13;5075408;28;20044;-79
2023/05/15 10:45:08;;;;;;;59.30;54.92;;;;;;;20.71;46.74;101420.31;5075378;28;20025;-78
2023/05/15 10:47:35;;;;;;;56.40;52.50;;;;;;;20.70;46.73;101419.50;5074995;28;20516;-78
2023/05/15 10:50:00;;;;;;;60.28;55.95;;;;;;;20.72;46.45;101420.03;5040826;28;20036;-78
2023/05/15 10:52:26;;;;;;;58.95;54.75;;;;;;;20.73;46.52;101415.34;5075811;28;20105;-75
2023/05/15 10:54:53;;;;;;;57.58;53.42;;;;;;;20.74;46.60;101415.06;5074828;28;20025;-77
2023/05/15 10:57:21;;;;;;;55.97;52.10;;;;;;;20.75;46.44;101418.63;5075072;28;20028;-78
2023/05/15 10:59:47;;;;;;;57.70;53.47;;;;;;;20.75;46.19;101416.69;5075036;28;20032;-78
2023/05/15 11:02:24;;;;;;;58.08;54.05;;;;;;;20.77;46.66;101421.09;5075310;28;20033;-78
2023/05/15 11:05:01;;;;;;;57.95;54.03;;;;;;;20.77;46.65;101412.84;5057484;28;20044;-77
2023/05/15 11:07:27;;;;;;;58.60;54.15;;;;;;;20.77;46.63;101410.09;5057014;28;20052;-78
2023/05/15 11:09:53;;;;;;;62.88;57.95;;;;;;;20.78;46.68;101407.03;5056596;28;20040;-78